Time;durP1;ratioP1;P1;durP2;ratioP2;P2;SDS_P1;SDS_P2;PMS_P1;PMS_P2;Temp;Humidity;BMP_temperature;BMP_pressure;BME280_temperature;BME280_humidity;BME280_pressure;Samples;Min_cycle;Max_cycle;Signal;HPM_P1;HPM_P2
2022/06/09 00:00:13;;;;;;;19.80;13.43;;;;;;;20.94;77.44;99528.31;5329334;32;35537;-73
2022/06/09 00:03:20;;;;;;;18.60;12.85;;;;;;;20.40;81.15;99521.00;5329422;32;34215;-69
2022/06/09 00:06:25;;;;;;;19.10;12.95;;;;;;;21.28;76.97;99523.25;5342636;32;44313;-68
2022/06/09 00:09:31;;;;;;;18.12;12.85;;;;;;;21.62;73.84;99523.47;5326476;32;33942;-69
2022/06/09 00:12:33;;;;;;;15.60;12.40;;;;;;;20.76;77.94;99524.72;5346292;32;34235;-74
2022/06/09 00:15:35;;;;;;;15.93;12.57;;;;;;;20.59;79.39;99523.66;5327224;32;34438;-69
2022/06/09 00:18:38;;;;;;;16.90;13.35;;;;;;;20.21;81.59;99520.03;5341400;32;34124;-74
2022/06/09 00:21:40;;;;;;;16.95;13.60;;;;;;;20.64;80.24;99517.88;5334952;32;34127;-73
2022/06/09 00:24:42;;;;;;;17.87;14.23;;;;;;;20.44;80.60;99515.22;5326879;32;35645;-68
2022/06/09 00:27:45;;;;;;;18.83;13.10;;;;;;;21.09;77.86;99516.16;5345742;32;34645;-68
2022/06/09 00:30:49;;;;;;;17.77;12.93;;;;;;;20.15;81.84;99514.44;5323614;32;35554;-73
2022/06/09 00:33:51;;;;;;;17.20;13.63;;;;;;;20.14;81.41;99508.25;5345142;32;44411;-73
2022/06/09 00:36:53;;;;;;;16.50;12.43;;;;;;;20.24;81.48;99511.75;5329735;32;34547;-72
2022/06/09 00:39:55;;;;;;;20.62;13.32;;;;;;;21.01;77.31;99509.88;5315280;32;37328;-73
2022/06/09 00:42:59;;;;;;;18.58;12.63;;;;;;;20.75;78.13;99509.72;5339152;32;35264;-72
2022/06/09 00:46:18;;;;;;;17.17;12.33;;;;;;;21.65;74.18;99508.13;5326828;32;35303;-69
2022/06/09 00:49:44;;;;;;;17.03;11.87;;;;;;;22.06;71.36;99504.81;5343507;32;46713;-69
2022/06/09 00:52:49;;;;;;;17.95;11.98;;;;;;;21.58;73.57;99508.72;5327576;32;34254;-69
2022/06/09 00:55:52;;;;;;;17.13;11.83;;;;;;;21.63;73.50;99513.59;5336146;32;44595;-74
2022/06/09 00:58:55;;;;;;;21.90;12.02;;;;;;;21.63;73.22;99509.09;5335478;32;34104;-74
2022/06/09 01:02:02;;;;;;;17.73;11.68;;;;;;;21.18;74.96;99510.91;5327330;32;33844;-74
2022/06/09 01:05:05;;;;;;;17.67;12.33;;;;;;;20.54;78.30;99515.22;5343003;32;34035;-73
2022/06/09 01:08:09;;;;;;;17.70;12.25;;;;;;;20.52;79.34;99510.03;5330918;32;34239;-68
2022/06/09 01:11:11;;;;;;;19.93;11.93;;;;;;;20.25;80.45;99509.94;5342632;32;33413;-73
2022/06/09 01:14:16;;;;;;;17.25;13.15;;;;;;;20.37;80.24;99508.78;5328376;32;34177;-67
2022/06/09 01:17:29;;;;;;;17.12;12.27;;;;;;;20.52;79.40;99504.69;5330470;32;35236;-73
2022/06/09 01:20:43;;;;;;;16.12;12.07;;;;;;;20.39;80.17;99500.63;5343946;32;35187;-72
2022/06/09 01:23:58;;;;;;;15.90;12.03;;;;;;;20.61;78.83;99499.47;5324901;32;33260;-72
2022/06/09 01:27:09;;;;;;;15.68;11.73;;;;;;;20.87;78.34;99495.19;5345702;32;34887;-72
2022/06/09 01:30:36;;;;;;;18.12;12.57;;;;;;;21.48;74.37;99483.88;5328205;32;34663;-69
2022/06/09 01:33:49;;;;;;;16.27;12.18;;;;;;;20.57;78.74;99485.59;5330848;32;36307;-74
2022/06/09 01:37:03;;;;;;;20.77;11.63;;;;;;;20.50;79.41;99488.00;5345055;32;44395;-75
2022/06/09 01:40:08;;;;;;;17.83;11.93;;;;;;;20.33;80.14;99496.72;5307532;32;35168;-69
2022/06/09 01:43:11;;;;;;;17.23;12.17;;;;;;;20.42;80.76;99503.88;5343527;32;34168;-69
2022/06/09 01:46:36;;;;;;;16.95;12.15;;;;;;;20.48;80.34;99497.13;5331397;32;34408;-73
2022/06/09 01:49:39;;;;;;;18.85;12.98;;;;;;;20.91;78.28;99496.56;5325885;32;34644;-70
2022/06/09 01:52:42;;;;;;;17.62;12.20;;;;;;;20.40;79.95;99497.81;5344640;32;34963;-73
2022/06/09 01:55:50;;;;;;;19.33;13.13;;;;;;;20.44;79.84;99493.03;5326083;32;34803;-73
2022/06/09 01:59:03;;;;;;;18.33;12.30;;;;;;;20.44;80.40;99491.22;5343651;32;44471;-74
2022/06/09 02:02:19;;;;;;;16.70;11.60;;;;;;;20.39;79.57;99492.63;5328426;32;34934;-72
2022/06/09 02:05:27;;;;;;;15.30;11.90;;;;;;;20.34;80.21;99497.56;5326138;32;46866;-68
2022/06/09 02:08:30;;;;;;;17.87;12.93;;;;;;;20.50;79.98;99487.16;5343330;32;33983;-68
2022/06/09 02:11:32;;;;;;;21.23;12.55;;;;;;;20.66;78.64;99490.03;5328517;32;34151;-72
2022/06/09 02:14:34;;;;;;;16.77;13.05;;;;;;;20.57;78.96;99487.41;5344918;32;34493;-70
2022/06/09 02:17:43;;;;;;;20.30;12.35;;;;;;;20.39;80.11;99490.78;5326737;32;34118;-71
2022/06/09 02:21:23;;;;;;;15.07;11.77;;;;;;;20.64;78.30;99484.00;5331154;32;33834;-72
2022/06/09 02:24:27;;;;;;;17.73;11.25;;;;;;;20.61;78.26;99484.31;5338917;32;34884;-69
2022/06/09 02:27:29;;;;;;;19.95;12.10;;;;;;;20.60;77.56;99487.12;5328575;32;34787;-68
2022/06/09 02:30:31;;;;;;;19.10;12.48;;;;;;;20.05;81.18;99497.59;5343359;32;34799;-68
2022/06/09 02:33:51;;;;;;;18.27;12.98;;;;;;;20.59;78.71;99501.44;5327363;32;46192;-68
2022/06/09 02:36:53;;;;;;;21.00;12.10;;;;;;;20.50;79.25;99497.84;5328794;32;35237;-68
2022/06/09 02:39:55;;;;;;;17.62;12.37;;;;;;;21.16;76.08;99497.69;5321948;32;34840;-72
2022/06/09 02:42:58;;;;;;;20.10;13.18;;;;;;;21.13;75.47;99499.84;5328158;32;34123;-69
2022/06/09 02:46:01;;;;;;;19.27;12.02;;;;;;;20.80;77.93;99504.75;5344506;32;35592;-68
2022/06/09 02:49:03;;;;;;;19.92;12.98;;;;;;;21.51;74.30;99504.13;5325879;32;34637;-68
2022/06/09 02:52:05;;;;;;;26.83;16.83;;;;;;;20.99;76.43;99512.66;5343760;32;34046;-68
2022/06/09 02:55:09;;;;;;;22.90;17.33;;;;;;;21.05;76.90;99513.91;5327451;32;34041;-75
2022/06/09 02:58:12;;;;;;;28.77;18.55;;;;;;;20.59;79.76;99507.63;5326883;32;35295;-67
2022/06/09 03:01:14;;;;;;;27.40;19.45;;;;;;;20.68;79.13;99511.28;5341111;32;36064;-68
2022/06/09 03:04:16;;;;;;;28.83;20.02;;;;;;;20.57;80.12;99504.28;5325307;32;34912;-72
2022/06/09 03:07:18;;;;;;;25.50;18.23;;;;;;;21.71;74.53;99494.97;5345397;32;35277;-72
2022/06/09 03:10:21;;;;;;;27.00;17.67;;;;;;;21.10;77.78;99512.47;5325335;32;43079;-74
2022/06/09 03:13:23;;;;;;;;;;;;;;;21.81;74.12;99501.06;5341867;32;35366;-73
2022/06/09 03:16:25;;;;;;;22.58;17.02;;;;;;;22.43;70.48;99501.94;5329136;32;34579;-68
2022/06/09 03:19:28;;;;;;;24.12;16.50;;;;;;;22.58;69.60;99496.84;5327928;32;35343;-69
2022/06/09 03:22:30;;;;;;;21.48;16.55;;;;;;;21.48;74.67;99504.44;5340517;32;37005;-68
2022/06/09 03:25:33;;;;;;;;;;;;;;;21.63;74.31;99503.75;5324518;32;34069;-72
2022/06/09 03:28:35;;;;;;;21.73;14.63;;;;;;;22.13;71.92;99500.53;5342254;32;35331;-67
2022/06/09 03:31:37;;;;;;;20.83;14.60;;;;;;;22.56;69.68;99495.34;5320923;32;33881;-71
2022/06/09 03:34:39;;;;;;;18.75;13.70;;;;;;;22.19;70.41;99495.56;5339727;32;35850;-66
2022/06/09 03:37:41;;;;;;;22.30;15.38;;;;;;;22.62;68.84;99498.22;5327243;32;34622;-73
2022/06/09 03:40:44;;;;;;;25.25;13.02;;;;;;;22.88;67.24;99494.69;5311049;32;35071;-67
2022/06/09 03:43:46;;;;;;;19.02;12.60;;;;;;;21.51;73.05;99498.75;5341166;32;34202;-68
2022/06/09 03:46:48;;;;;;;16.50;11.35;;;;;;;21.56;73.97;99499.16;5330712;32;35464;-73
2022/06/09 03:49:50;;;;;;;19.85;12.30;;;;;;;21.66;72.93;99501.78;5344426;32;46960;-68
2022/06/09 03:52:52;;;;;;;17.00;12.10;;;;;;;20.97;75.75;99505.81;5329787;32;34135;-72
2022/06/09 03:55:57;;;;;;;18.42;11.98;;;;;;;20.90;76.82;99500.22;5341103;32;33992;-73
2022/06/09 03:58:59;;;;;;;15.68;11.68;;;;;;;20.82;76.26;99500.13;5333795;32;35764;-68
2022/06/09 04:02:01;;;;;;;18.25;11.98;;;;;;;21.02;76.83;99509.72;5329679;32;34070;-72
2022/06/09 04:05:04;;;;;;;20.60;11.77;;;;;;;21.61;73.77;99508.41;5343904;32;35374;-72
2022/06/09 04:08:06;;;;;;;17.48;12.45;;;;;;;21.34;74.77;99500.44;5330002;32;34101;-73
2022/06/09 04:11:09;;;;;;;18.40;12.80;;;;;;;20.97;76.23;99503.13;5343444;32;34116;-72
2022/06/09 04:14:11;;;;;;;17.33;12.85;;;;;;;20.86;76.92;99501.47;5328657;32;34235;-72
2022/06/09 04:17:13;;;;;;;21.55;12.00;;;;;;;21.32;74.51;99503.28;5338552;32;35353;-70
2022/06/09 04:20:18;;;;;;;18.00;13.30;;;;;;;21.29;75.71;99500.03;5336223;32;35522;-74
2022/06/09 04:23:20;;;;;;;18.00;13.68;;;;;;;21.28;74.88;99503.69;5325843;32;46085;-69
2022/06/09 04:26:25;;;;;;;20.92;14.25;;;;;;;21.58;74.06;99510.56;5343596;32;34055;-73
2022/06/09 04:29:27;;;;;;;17.80;13.32;;;;;;;21.52;73.87;99513.84;5328488;32;34315;-72
2022/06/09 04:32:30;;;;;;;20.67;12.85;;;;;;;21.76;72.14;99503.38;5346302;32;33838;-72
2022/06/09 04:35:32;;;;;;;17.20;12.93;;;;;;;22.53;69.85;99509.84;5330140;32;35263;-72
2022/06/09 04:38:35;;;;;;;18.33;13.15;;;;;;;22.61;69.08;99512.63;5320313;32;35546;-73
2022/06/09 04:41:38;;;;;;;23.40;14.35;;;;;;;23.23;66.88;99515.94;5333197;32;34280;-69
2022/06/09 04:44:41;;;;;;;15.45;12.52;;;;;;;22.65;67.71;99521.16;5328827;32;35404;-68
2022/06/09 04:47:43;;;;;;;17.10;11.75;;;;;;;22.47;69.00;99523.88;5344343;32;33995;-72
2022/06/09 04:50:45;;;;;;;19.55;12.73;;;;;;;23.10;67.20;99520.06;5327678;32;33144;-72
2022/06/09 04:53:48;;;;;;;16.70;12.02;;;;;;;23.58;65.04;99523.94;5344898;32;35796;-73
2022/06/09 04:56:50;;;;;;;23.98;16.60;;;;;;;22.94;68.03;99526.22;5321962;32;44331;-67
2022/06/09 04:59:54;;;;;;;18.50;13.27;;;;;;;22.96;68.03;99521.53;5330224;32;35334;-73
2022/06/09 05:02:57;;;;;;;20.15;13.75;;;;;;;23.09;67.28;99518.41;5345106;32;34264;-72
2022/06/09 05:05:59;;;;;;;17.87;12.35;;;;;;;23.65;65.44;99514.25;5328193;32;34175;-68
2022/06/09 05:09:01;;;;;;;20.83;13.60;;;;;;;23.40;65.45;99516.00;5343592;32;35918;-74
2022/06/09 05:12:04;;;;;;;18.08;14.45;;;;;;;23.51;65.71;99524.59;5326505;32;35906;-73
2022/06/09 05:15:06;;;;;;;;;;;;;;;23.38;65.91;99526.91;5342555;32;33958;-72
2022/06/09 05:18:11;;;;;;;19.08;13.75;;;;;;;23.59;64.95;99525.59;5327527;32;35615;-73
2022/06/09 05:21:13;;;;;;;20.98;15.60;;;;;;;23.76;63.15;99530.88;5325508;32;36594;-70
2022/06/09 05:24:15;;;;;;;19.12;15.27;;;;;;;23.13;65.86;99536.69;5340537;32;36545;-73
2022/06/09 05:27:17;;;;;;;18.67;14.57;;;;;;;22.36;70.04;99533.03;5326109;32;34267;-75
2022/06/09 05:30:22;;;;;;;19.40;14.70;;;;;;;22.46;69.18;99540.94;5340237;32;36768;-72
2022/06/09 05:33:25;;;;;;;20.10;15.00;;;;;;;22.99;68.06;99545.31;5329692;32;34526;-70
2022/06/09 05:36:27;;;;;;;;;;;;;;;23.02;67.18;99552.19;5343955;32;34477;-73
2022/06/09 05:46:15;;;;;;;19.33;12.52;;;;;;;24.26;61.14;99546.00;5344998;32;34695;-71
2022/06/09 05:49:18;;;;;;;16.87;10.82;;;;;;;24.96;59.17;99548.09;5327217;32;34338;-71
2022/06/09 05:52:25;;;;;;;16.70;12.23;;;;;;;24.94;58.35;99549.28;5332803;32;46916;-67
2022/06/09 05:55:28;;;;;;;12.37;8.70;;;;;;;25.10;56.54;99562.69;5312597;32;35636;-65
2022/06/09 05:58:30;;;;;;;10.13;6.90;;;;;;;25.23;54.68;99562.97;5327507;32;34190;-69
2022/06/09 06:01:32;;;;;;;11.80;7.32;;;;;;;25.89;51.08;99550.03;5337216;32;34254;-75
2022/06/09 06:04:34;;;;;;;;;;;;;;;25.54;51.92;99554.09;5314036;32;34206;-75
2022/06/09 06:07:37;;;;;;;9.93;6.00;;;;;;;25.79;51.02;99549.47;5341107;32;34188;-68
2022/06/09 06:10:39;;;;;;;10.55;7.00;;;;;;;25.26;51.90;99557.28;5325290;32;33043;-66
2022/06/09 06:13:45;;;;;;;;;;;;;;;25.61;50.96;99553.22;5337553;32;35424;-74
2022/06/09 06:16:50;;;;;;;11.48;6.95;;;;;;;24.58;53.05;99563.97;5332640;32;35069;-77
2022/06/09 06:19:52;;;;;;;10.60;6.00;;;;;;;24.69;53.13;99567.31;5312069;32;46863;-72
2022/06/09 06:22:55;;;;;;;10.27;6.07;;;;;;;25.10;52.06;99576.13;5343210;32;35348;-74
2022/06/09 06:25:59;;;;;;;9.52;5.60;;;;;;;24.88;52.80;99575.00;5319385;32;33896;-77
2022/06/09 06:29:03;;;;;;;10.85;6.22;;;;;;;25.09;51.89;99561.88;5333350;32;33282;-65
2022/06/09 06:32:06;;;;;;;10.30;5.15;;;;;;;24.23;54.91;99572.34;5314967;32;33842;-65
2022/06/09 06:35:09;;;;;;;9.73;4.62;;;;;;;24.97;52.34;99568.59;5326128;32;33904;-65
2022/06/09 06:38:17;;;;;;;6.87;4.05;;;;;;;25.17;51.35;99577.13;5318143;32;33489;-79
2022/06/09 06:41:19;;;;;;;6.53;4.20;;;;;;;24.57;52.57;99578.41;5317305;32;35308;-66
2022/06/09 06:44:21;;;;;;;5.32;3.20;;;;;;;25.21;51.25;99581.16;5341834;32;45194;-67
2022/06/09 06:47:24;;;;;;;7.18;3.83;;;;;;;25.29;50.75;99575.72;5316681;32;34864;-73
2022/06/09 06:50:26;;;;;;;8.02;3.50;;;;;;;25.87;49.46;99552.91;5336181;32;33833;-77
2022/06/09 06:53:29;;;;;;;5.82;3.60;;;;;;;26.19;48.38;99567.16;5331545;32;35582;-65
2022/06/09 06:56:34;;;;;;;6.03;3.17;;;;;;;25.87;48.92;99562.84;5329389;32;36963;-73
2022/06/09 06:59:36;;;;;;;5.30;3.72;;;;;;;26.28;48.08;99571.50;5338792;32;33934;-78
2022/06/09 07:02:39;;;;;;;8.15;4.40;;;;;;;26.14;48.39;99569.56;5330115;32;33924;-76
2022/06/09 07:06:05;;;;;;;7.80;5.00;;;;;;;25.25;51.30;99574.44;5322027;32;34433;-77
2022/06/09 07:09:11;;;;;;;11.10;4.82;;;;;;;25.36;51.18;99574.03;5324134;32;35247;-78
2022/06/09 07:12:13;;;;;;;7.95;4.85;;;;;;;25.57;50.82;99575.28;5335824;32;35291;-76
2022/06/09 07:15:15;;;;;;;10.20;5.00;;;;;;;25.41;51.42;99578.03;5337090;32;34329;-73
2022/06/09 07:18:18;;;;;;;11.57;6.20;;;;;;;26.32;49.56;99575.47;5314416;32;35706;-72
2022/06/09 07:21:20;;;;;;;8.38;5.82;;;;;;;25.12;53.31;99587.59;5345182;32;44763;-68
2022/06/09 07:24:22;;;;;;;7.43;4.90;;;;;;;24.56;54.87;99574.03;5325086;32;35279;-67
2022/06/09 07:27:25;;;;;;;11.90;5.72;;;;;;;25.97;50.28;99579.63;5346893;32;34205;-66
2022/06/09 07:30:28;;;;;;;11.70;5.80;;;;;;;25.67;51.37;99583.97;5330463;32;34897;-66
2022/06/09 07:33:33;;;;;;;8.65;4.93;;;;;;;25.44;52.34;99578.56;5327464;32;33988;-66
2022/06/09 07:36:39;;;;;;;9.93;4.97;;;;;;;25.31;52.41;99580.94;5347223;32;35293;-71
2022/06/09 07:39:41;;;;;;;12.27;5.50;;;;;;;26.12;49.31;99585.06;5311928;32;34047;-65
2022/06/09 07:42:46;;;;;;;11.00;4.50;;;;;;;25.20;52.17;99590.22;5349032;32;35536;-67
2022/06/09 07:45:50;;;;;;;12.60;6.75;;;;;;;25.37;51.84;99573.03;5330549;32;33992;-67
2022/06/09 07:48:54;;;;;;;11.00;6.20;;;;;;;24.54;58.21;99577.91;5340090;32;44391;-69
2022/06/09 07:51:56;;;;;;;8.00;4.60;;;;;;;23.49;62.24;99572.16;5317852;32;35314;-66
2022/06/09 07:54:59;;;;;;;9.15;5.60;;;;;;;25.32;52.67;99579.94;5330200;32;34025;-67
2022/06/09 07:58:01;;;;;;;12.02;5.22;;;;;;;24.90;55.35;99572.13;5331529;32;35205;-66
2022/06/09 08:01:04;;;;;;;10.25;5.30;;;;;;;26.80;49.19;99570.72;5330313;32;33852;-65
2022/06/09 08:04:07;;;;;;;8.40;4.40;;;;;;;27.28;47.49;99568.50;5336564;32;34290;-66
2022/06/09 08:07:09;;;;;;;8.68;4.93;;;;;;;27.77;45.60;99566.03;5331551;32;36718;-67
2022/06/09 08:10:18;;;;;;;7.68;4.50;;;;;;;27.46;47.65;99577.03;5336531;32;35332;-71
2022/06/09 08:13:20;;;;;;;11.12;4.80;;;;;;;27.57;46.57;99574.91;5331305;32;45647;-68
2022/06/09 08:16:23;;;;;;;8.52;5.00;;;;;;;24.85;55.76;99589.59;5328250;32;34105;-71
2022/06/09 08:19:26;;;;;;;9.55;5.53;;;;;;;24.58;57.26;99579.25;5334806;32;34019;-66
2022/06/09 08:22:28;;;;;;;7.22;4.18;;;;;;;25.85;54.14;99567.59;5327110;32;35170;-65
2022/06/09 08:25:30;;;;;;;9.13;4.55;;;;;;;27.08;46.39;99562.00;5339227;32;34111;-72
2022/06/09 08:28:33;;;;;;;10.45;5.47;;;;;;;27.14;46.40;99561.25;5320842;32;35366;-66
2022/06/09 08:31:35;;;;;;;13.38;6.68;;;;;;;26.17;49.88;99574.59;5332776;32;34323;-73
2022/06/09 08:34:39;;;;;;;9.50;5.47;;;;;;;26.30;50.66;99565.91;5327967;32;34583;-75
2022/06/09 08:37:42;;;;;;;9.93;5.43;;;;;;;25.82;52.01;99567.94;5325876;32;35163;-69
2022/06/09 08:40:56;;;;;;;11.93;5.78;;;;;;;25.57;52.18;99572.59;5319299;32;35660;-68
2022/06/09 08:44:12;;;;;;;11.18;5.70;;;;;;;25.37;52.89;99575.72;5325256;32;44433;-69
2022/06/09 08:47:15;;;;;;;12.65;6.47;;;;;;;25.86;51.01;99564.72;5340330;32;35513;-69
2022/06/09 08:50:26;;;;;;;9.90;5.18;;;;;;;26.20;49.70;99566.16;5326623;32;35790;-73
2022/06/09 08:53:49;;;;;;;10.15;4.75;;;;;;;28.04;45.44;99559.03;5320701;32;44913;-69
2022/06/09 08:56:52;;;;;;;9.77;5.95;;;;;;;29.85;39.80;99546.47;5336482;32;44719;-67
2022/06/09 08:59:56;;;;;;;9.63;4.65;;;;;;;29.88;40.15;99535.22;5325202;32;34501;-66
2022/06/09 09:03:17;;;;;;;7.07;3.70;;;;;;;26.67;44.74;99543.56;5340265;32;34869;-73
2022/06/09 09:06:40;;;;;;;3.45;2.03;;;;;;;26.51;45.87;99544.53;5318277;32;44467;-76
2022/06/09 09:09:46;;;;;;;7.30;2.70;;;;;;;27.99;39.55;99534.47;5328124;32;33484;-65
2022/06/09 09:13:11;;;;;;;6.45;2.70;;;;;;;28.71;38.86;99529.88;5343983;32;37364;-73
2022/06/09 09:16:27;;;;;;;9.35;3.30;;;;;;;29.57;37.63;99524.97;5321891;32;34222;-67
2022/06/09 09:19:51;;;;;;;6.82;2.70;;;;;;;30.66;35.85;99517.34;5306422;32;46807;-77
2022/06/09 09:22:59;;;;;;;5.82;3.25;;;;;;;32.02;34.21;99508.28;5342765;32;44855;-77
2022/06/09 09:26:25;;;;;;;7.45;3.83;;;;;;;30.12;37.22;99515.69;5327115;32;35626;-71
2022/06/09 09:29:46;;;;;;;6.70;3.97;;;;;;;28.10;42.22;99516.91;5306436;32;34101;-71
2022/06/09 09:32:52;;;;;;;7.47;4.25;;;;;;;28.59;41.59;99516.91;5327924;32;35289;-64
2022/06/09 09:36:19;;;;;;;6.40;3.37;;;;;;;28.37;41.94;99509.88;5318466;32;44985;-70
2022/06/09 09:39:30;;;;;;;7.68;3.65;;;;;;;29.34;39.22;99523.38;5313693;32;44651;-66
2022/06/09 09:42:33;;;;;;;5.30;3.20;;;;;;;28.81;40.80;99523.09;5317941;32;34716;-68
2022/06/09 09:45:38;;;;;;;7.35;3.75;;;;;;;28.54;41.53;99515.84;5336399;32;34073;-71
2022/06/09 09:48:42;;;;;;;5.87;3.30;;;;;;;28.52;41.59;99513.31;5330746;32;35452;-71
2022/06/09 09:51:46;;;;;;;11.48;7.25;;;;;;;30.94;36.48;99503.53;5326453;32;34179;-65
2022/06/09 09:54:48;;;;;;;7.15;4.30;;;;;;;30.20;37.48;99487.56;5337680;32;35240;-67
2022/06/09 09:58:13;;;;;;;4.65;3.30;;;;;;;31.31;35.59;99495.72;5327840;32;44124;-66
2022/06/09 10:01:18;;;;;;;6.28;3.55;;;;;;;32.28;32.92;99489.03;5337449;32;36611;-71
2022/06/09 10:11:56;;;;;;;7.40;3.97;;;;;;;34.18;29.97;99490.69;5344161;32;35818;-69
2022/06/09 10:15:10;;;;;;;6.53;3.97;;;;;;;30.59;35.53;99494.84;5326710;32;44693;-68
2022/06/09 10:18:30;;;;;;;4.93;3.50;;;;;;;31.20;34.79;99490.94;5326083;32;33041;-68
2022/06/09 10:21:56;;;;;;;7.65;3.45;;;;;;;30.33;35.51;99481.28;5341703;32;36265;-69
2022/06/09 10:25:23;;;;;;;4.25;3.08;;;;;;;33.74;29.98;99468.31;5323431;32;44310;-68
2022/06/09 10:28:46;;;;;;;5.37;3.60;;;;;;;34.91;27.74;99471.16;5332544;32;44454;-67
2022/06/09 10:32:27;;;;;;;4.90;3.20;;;;;;;34.45;28.85;99469.28;5336073;32;36961;-68
2022/06/09 10:35:34;;;;;;;6.82;3.30;;;;;;;34.61;28.27;99459.56;5321518;32;34517;-69
2022/06/09 10:38:43;;;;;;;4.90;3.17;;;;;;;31.90;33.02;99474.72;5325721;32;34557;-67
2022/06/09 10:42:04;;;;;;;5.78;3.37;;;;;;;31.69;33.37;99475.87;5328214;32;33990;-66
2022/06/09 10:45:17;;;;;;;4.22;2.90;;;;;;;31.47;33.38;99476.19;5317821;32;34272;-70
2022/06/09 10:56:00;;;;;;;3.65;2.65;;;;;;;32.53;31.37;99450.97;5326292;32;35694;-66
2022/06/09 10:59:40;;;;;;;6.87;3.03;;;;;;;33.17;29.96;99448.78;5339576;32;35198;-67
2022/06/09 11:02:51;;;;;;;7.00;3.35;;;;;;;31.78;32.30;99434.66;5300201;32;34147;-68
2022/06/09 11:06:18;;;;;;;5.68;3.25;;;;;;;32.25;31.68;99432.38;5326367;32;44282;-67
2022/06/09 11:09:37;;;;;;;5.32;2.95;;;;;;;30.59;34.62;99437.91;5339033;32;44079;-67
2022/06/09 11:12:48;;;;;;;4.95;3.30;;;;;;;31.78;32.25;99431.09;5331072;32;34531;-69
2022/06/09 11:16:09;;;;;;;4.07;3.03;;;;;;;31.81;31.99;99426.06;5338287;32;44724;-67
2022/06/09 11:19:17;;;;;;;4.22;2.85;;;;;;;30.73;34.98;99430.59;5332556;32;34650;-68
2022/06/09 11:22:42;;;;;;;3.78;2.75;;;;;;;31.95;32.87;99417.81;5324755;32;36519;-70
2022/06/09 11:26:38;;;;;;;4.75;2.97;;;;;;;33.23;30.42;99401.56;5341520;32;34133;-70
2022/06/09 11:29:58;;;;;;;6.70;3.10;;;;;;;34.22;28.58;99396.47;5307376;32;34998;-67
2022/06/09 11:33:20;;;;;;;7.70;3.20;;;;;;;36.64;24.28;99388.59;5322230;32;32084;-70
2022/06/09 11:36:26;;;;;;;6.03;3.28;;;;;;;35.80;25.21;99385.97;5328576;32;44313;-65
2022/06/09 11:39:45;;;;;;;20.23;7.12;;;;;;;30.05;37.31;99395.62;5301709;32;33762;-73
2022/06/09 11:43:15;;;;;;;10.23;5.07;;;;;;;27.67;52.35;99416.16;5332339;32;35838;-69
2022/06/09 11:46:33;;;;;;;11.07;5.30;;;;;;;27.28;52.58;99414.72;5355920;32;38439;-69
2022/06/09 11:49:37;;;;;;;9.95;5.10;;;;;;;27.69;50.51;99408.72;5322691;32;34854;-70
2022/06/09 11:52:48;;;;;;;13.23;6.20;;;;;;;28.98;50.25;99390.25;5340597;32;34161;-73
2022/06/09 11:55:58;;;;;;;10.35;5.95;;;;;;;28.78;49.37;99393.69;5334803;32;46845;-68
2022/06/09 11:59:14;;;;;;;12.50;6.35;;;;;;;27.44;53.31;99392.91;5318437;32;33982;-76
2022/06/09 12:02:49;;;;;;;9.85;6.03;;;;;;;27.27;55.90;99405.81;5336026;32;32630;-66
2022/06/09 12:06:17;;;;;;;10.30;3.70;;;;;;;26.73;55.37;99440.41;5318823;32;34273;-71
2022/06/09 12:09:58;;;;;;;13.70;4.53;;;;;;;26.24;50.87;99446.28;5318503;32;34019;-69
2022/06/09 12:13:11;;;;;;;19.00;5.00;;;;;;;24.12;61.88;99474.19;5341275;32;34039;-74
2022/06/09 12:16:29;;;;;;;8.63;3.30;;;;;;;23.17;65.57;99467.50;5316043;32;35502;-70
2022/06/09 12:19:35;;;;;;;10.70;3.60;;;;;;;21.73;71.55;99487.62;5313722;32;34318;-73
2022/06/09 12:22:40;;;;;;;9.50;3.20;;;;;;;21.77;70.60;99494.38;5323657;32;34281;-68
2022/06/09 12:25:43;;;;;;;6.60;2.70;;;;;;;20.48;73.64;99495.31;5321186;32;34987;-68
2022/06/09 12:28:57;;;;;;;7.03;2.97;;;;;;;21.26;69.86;99490.47;5324094;32;34403;-69
2022/06/09 12:32:20;;;;;;;6.10;2.43;;;;;;;21.30;69.58;99469.66;5323937;32;44825;-69
2022/06/09 12:35:27;;;;;;;3.97;2.03;;;;;;;19.70;73.26;99467.00;5331679;32;44235;-67
2022/06/09 12:38:40;;;;;;;9.07;1.93;;;;;;;19.64;71.60;99467.56;5322331;32;35303;-65
2022/06/09 12:41:44;;;;;;;5.37;2.20;;;;;;;20.09;70.13;99464.31;5313134;32;34160;-65
2022/06/09 12:45:02;;;;;;;5.20;2.00;;;;;;;19.88;68.78;99468.00;5342078;32;33985;-72
2022/06/09 12:48:16;;;;;;;4.70;2.07;;;;;;;20.73;68.27;99471.59;5329699;32;34034;-70
2022/06/09 12:51:26;;;;;;;5.30;1.70;;;;;;;22.09;62.00;99459.06;5338427;32;35373;-64
2022/06/09 12:54:32;;;;;;;4.50;2.63;;;;;;;21.21;63.27;99460.69;5332935;32;44245;-65
2022/06/09 12:57:42;;;;;;;5.20;2.17;;;;;;;21.60;61.86;99461.28;5326730;32;34728;-65
2022/06/09 13:00:49;;;;;;;5.57;2.30;;;;;;;22.35;61.18;99464.41;5344319;32;34861;-76
2022/06/09 13:03:54;;;;;;;7.50;2.50;;;;;;;22.84;59.48;99466.50;5327880;32;44342;-74
2022/06/09 13:06:56;;;;;;;10.52;2.12;;;;;;;23.23;58.54;99462.31;5342934;32;34728;-67
2022/06/09 13:10:24;;;;;;;5.60;2.10;;;;;;;23.99;56.79;99463.12;5331574;32;34163;-68
2022/06/09 13:13:31;;;;;;;3.85;2.05;;;;;;;24.37;53.56;99453.56;5330873;32;44609;-84
2022/06/09 13:16:39;;;;;;;6.95;3.03;;;;;;;24.05;55.43;99463.28;5343241;32;34833;-67
2022/06/09 13:19:42;;;;;;;3.58;2.15;;;;;;;24.50;53.87;99453.84;5322655;32;35318;-68
2022/06/09 13:22:44;;;;;;;3.70;2.00;;;;;;;24.97;51.55;99444.09;5354037;32;34106;-74
2022/06/09 13:25:47;;;;;;;6.68;2.10;;;;;;;25.63;49.71;99429.25;5332777;32;34031;-82
2022/06/09 13:28:51;;;;;;;2.85;2.12;;;;;;;25.63;49.96;99423.88;5339461;32;36160;-68
2022/06/09 13:32:19;;;;;;;5.18;2.20;;;;;;;26.04;47.91;99415.50;5363467;28;46223;-92
2022/06/09 13:35:42;;;;;;;7.53;2.97;;;;;;;26.70;49.62;99427.28;5350232;32;34515;-91
2022/06/09 13:38:50;;;;;;;8.65;3.55;;;;;;;25.43;54.95;99409.25;5358233;32;32967;-95
2022/06/09 13:42:17;;;;;;;8.43;4.37;;;;;;;25.49;58.05;99441.66;5378926;32;44123;-91
2022/06/09 13:45:30;;;;;;;5.55;3.33;;;;;;;24.53;64.51;99456.19;5357031;32;36887;-90
2022/06/09 13:48:56;;;;;;;11.32;3.80;;;;;;;23.61;64.75;99475.31;5339466;32;33106;-96
2022/06/09 13:52:07;;;;;;;7.78;2.95;;;;;;;23.26;65.93;99489.81;5359538;32;34439;-96
2022/06/09 13:55:26;;;;;;;15.48;4.85;;;;;;;22.50;69.02;99534.28;5330022;32;46124;-94
2022/06/09 13:58:33;;;;;;;11.40;5.20;;;;;;;21.60;73.49;99522.78;5344226;32;42780;-93
2022/06/09 14:02:02;;;;;;;10.68;4.55;;;;;;;20.71;80.67;99548.34;5305184;32;34435;-96
2022/06/09 14:05:26;;;;;;;15.27;5.00;;;;;;;20.82;78.67;99566.87;5308161;32;35226;-93
2022/06/09 14:12:36;;;;;;;10.70;5.20;;;;;;;20.82;73.40;99559.72;5412523;27;35863;-95
2022/06/09 14:15:44;;;;;;;8.73;4.73;;;;;;;19.79;84.41;99572.00;5373919;32;35775;-95
2022/06/09 14:18:49;;;;;;;11.17;4.73;;;;;;;20.16;80.69;99559.66;5346243;32;34349;-96
2022/06/09 14:21:53;;;;;;;9.57;4.70;;;;;;;20.05;79.70;99554.47;5363180;32;44046;-96
2022/06/09 14:25:00;;;;;;;8.73;4.27;;;;;;;19.74;83.32;99557.25;5378890;32;34204;-96
2022/06/09 14:28:07;;;;;;;15.13;5.63;;;;;;;20.18;80.37;99541.69;5364858;32;34197;-94
2022/06/09 14:31:13;;;;;;;14.73;5.17;;;;;;;20.33;81.73;99534.06;5364556;32;35813;-96
2022/06/09 14:34:16;;;;;;;9.00;4.43;;;;;;;20.55;80.86;99539.13;5348803;32;35255;-94
2022/06/09 14:37:22;;;;;;;15.93;4.30;;;;;;;20.78;78.53;99576.16;5351424;32;43977;-93
2022/06/09 14:40:29;;;;;;;13.18;4.60;;;;;;;21.56;74.56;99572.19;5340946;32;35047;-94
2022/06/09 14:43:32;;;;;;;10.50;4.67;;;;;;;21.56;73.44;99537.44;5363084;32;35010;-94
2022/06/09 14:46:43;;;;;;;21.67;14.03;;;;;;;21.06;75.66;99540.50;5372454;32;33366;-96
2022/06/09 14:49:46;;;;;;;10.03;5.00;;;;;;;20.73;78.53;99539.19;5371092;32;35841;-94
2022/06/09 14:52:54;;;;;;;11.77;6.97;;;;;;;20.72;75.85;99545.53;5375262;32;45062;-95
2022/06/09 14:56:06;;;;;;;6.87;4.18;;;;;;;19.90;83.13;99540.72;5355522;32;33779;-96
2022/06/09 14:59:31;;;;;;;10.05;4.87;;;;;;;20.39;80.27;99540.66;5383851;32;33618;-96
2022/06/09 15:02:36;;;;;;;11.23;6.83;;;;;;;20.71;77.91;99538.50;5375134;32;34242;-94